createdAt,value
2017-10-05T00:00:59.954Z,11.80
2017-10-05T00:03:27.556Z,11.70
2017-10-05T00:05:55.172Z,11.70
2017-10-05T00:08:22.794Z,11.80
2017-10-05T00:10:50.414Z,11.80
2017-10-05T00:13:18.048Z,11.80
2017-10-05T00:15:46.419Z,11.70
2017-10-05T00:18:14.060Z,11.70
2017-10-05T00:20:41.675Z,11.60
2017-10-05T00:23:09.737Z,11.70
2017-10-05T00:25:37.524Z,11.70
2017-10-05T00:28:05.168Z,11.70
2017-10-05T00:33:05.649Z,11.60
2017-10-05T00:35:33.306Z,11.60
2017-10-05T00:38:00.904Z,11.60
2017-10-05T00:40:28.555Z,11.70
2017-10-05T00:42:56.193Z,11.70
2017-10-05T00:45:23.813Z,11.80
2017-10-05T00:47:51.439Z,11.70
2017-10-05T00:50:19.052Z,11.80
2017-10-05T00:52:46.700Z,11.70
2017-10-05T00:55:14.376Z,11.60
2017-10-05T00:57:42.012Z,11.60
2017-10-05T01:00:10.392Z,11.60
2017-10-05T01:02:38.007Z,11.60
2017-10-05T01:05:05.637Z,11.60
2017-10-05T01:07:33.326Z,11.60
2017-10-05T01:10:00.955Z,11.50
2017-10-05T01:12:28.542Z,11.50
2017-10-05T01:14:56.210Z,11.50
2017-10-05T01:17:23.836Z,11.40
2017-10-05T01:19:51.469Z,11.50
2017-10-05T01:22:19.873Z,11.40
2017-10-05T01:24:47.493Z,11.40
2017-10-05T01:27:15.183Z,11.50
2017-10-05T01:29:42.813Z,11.50
2017-10-05T01:32:10.462Z,11.40
2017-10-05T01:34:38.126Z,11.40
2017-10-05T01:37:05.894Z,11.50
2017-10-05T01:39:33.595Z,11.50
2017-10-05T01:42:02.003Z,11.30
2017-10-05T01:44:29.625Z,11.30
2017-10-05T01:46:57.605Z,11.30
2017-10-05T01:49:26.406Z,11.20
2017-10-05T01:51:54.503Z,11.20
2017-10-05T01:54:22.095Z,11.20
2017-10-05T01:56:49.753Z,11.20
2017-10-05T01:59:17.358Z,11.20
2017-10-05T02:01:45.937Z,11.10
2017-10-05T02:04:14.277Z,11.10
2017-10-05T02:06:43.687Z,11.10
2017-10-05T02:09:11.340Z,11.20
2017-10-05T02:11:40.519Z,11.10
2017-10-05T02:14:08.307Z,11.10
2017-10-05T02:16:37.901Z,11.00
2017-10-05T02:19:06.349Z,11.00
2017-10-05T02:21:34.967Z,11.00
2017-10-05T02:24:03.344Z,11.00
2017-10-05T02:26:30.970Z,11.00
2017-10-05T02:28:58.580Z,11.00
2017-10-05T02:31:26.176Z,10.90
2017-10-05T02:33:54.571Z,10.80
2017-10-05T02:36:22.184Z,10.80
2017-10-05T02:38:49.805Z,10.80
2017-10-05T02:41:17.424Z,10.90
2017-10-05T02:43:45.064Z,10.90
2017-10-05T02:46:12.819Z,10.90
2017-10-05T02:48:40.420Z,10.80
2017-10-05T02:51:08.026Z,10.80
2017-10-05T02:53:35.644Z,10.80
2017-10-05T02:56:03.266Z,10.80
2017-10-05T02:58:30.864Z,10.80
2017-10-05T03:00:58.511Z,10.90
2017-10-05T03:03:26.106Z,10.90
2017-10-05T03:05:53.714Z,10.80
2017-10-05T03:08:21.836Z,10.80
2017-10-05T03:10:50.204Z,10.80
2017-10-05T03:13:17.828Z,10.80
2017-10-05T03:15:45.463Z,10.80
2017-10-05T03:18:13.071Z,10.80
2017-10-05T03:20:40.678Z,10.70
2017-10-05T03:23:09.205Z,10.70
2017-10-05T03:25:36.804Z,10.70
2017-10-05T03:28:05.175Z,10.80
2017-10-05T03:30:32.942Z,10.70
2017-10-05T03:33:00.543Z,10.80
2017-10-05T03:35:29.014Z,10.80
2017-10-05T03:37:56.629Z,10.80
2017-10-05T03:40:24.249Z,10.80
2017-10-05T03:42:51.862Z,10.80
2017-10-05T03:45:19.672Z,10.80
2017-10-05T03:47:47.360Z,10.70
2017-10-05T03:50:15.018Z,10.70
2017-10-05T03:52:42.650Z,10.80
2017-10-05T03:55:10.445Z,10.70
2017-10-05T03:57:38.107Z,10.80
2017-10-05T04:00:05.742Z,10.70
2017-10-05T04:02:33.364Z,10.70
2017-10-05T04:05:00.989Z,10.70
2017-10-05T04:07:28.590Z,10.70
2017-10-05T04:09:56.202Z,10.60
2017-10-05T04:12:24.097Z,10.60
2017-10-05T04:14:51.738Z,10.70
2017-10-05T04:17:20.246Z,10.80
2017-10-05T04:19:47.911Z,10.70
2017-10-05T04:22:15.568Z,10.70
2017-10-05T04:24:43.177Z,10.70
2017-10-05T04:27:11.608Z,10.70
2017-10-05T04:29:39.211Z,10.70
2017-10-05T04:32:06.861Z,10.70
2017-10-05T04:34:34.495Z,10.80
2017-10-05T04:37:02.095Z,10.70
2017-10-05T04:39:30.570Z,10.70
2017-10-05T04:41:58.959Z,10.70
2017-10-05T04:44:27.439Z,10.70
2017-10-05T04:46:55.162Z,10.70
2017-10-05T04:49:22.799Z,10.70
2017-10-05T04:51:50.423Z,10.70
2017-10-05T04:54:18.077Z,10.70
2017-10-05T04:56:45.737Z,10.70
2017-10-05T04:59:13.454Z,10.70
2017-10-05T05:01:41.087Z,10.70
2017-10-05T05:04:09.580Z,10.70
2017-10-05T05:06:37.227Z,10.70
2017-10-05T05:09:04.839Z,10.70
2017-10-05T05:11:32.454Z,10.70
2017-10-05T05:14:00.895Z,10.60
2017-10-05T05:16:28.647Z,10.60
2017-10-05T05:18:57.186Z,10.60
2017-10-05T05:21:24.825Z,10.60
2017-10-05T05:23:52.457Z,10.60
2017-10-05T05:26:20.236Z,10.50
2017-10-05T05:28:48.668Z,10.60
2017-10-05T05:31:16.267Z,10.50
2017-10-05T05:33:44.093Z,10.60
2017-10-05T05:36:11.732Z,10.70
2017-10-05T05:38:40.156Z,10.70
2017-10-05T05:41:07.797Z,10.70
2017-10-05T05:43:35.421Z,10.70
2017-10-05T05:46:03.114Z,10.80
2017-10-05T05:48:30.952Z,10.80
2017-10-05T05:50:58.611Z,10.90
2017-10-05T05:53:26.268Z,10.90
2017-10-05T05:55:54.941Z,11.00
2017-10-05T05:58:22.696Z,11.20
2017-10-05T06:00:50.458Z,11.10
2017-10-05T06:03:18.976Z,11.00
2017-10-05T06:05:46.630Z,11.00
2017-10-05T06:08:14.302Z,11.00
2017-10-05T06:10:41.955Z,11.00
2017-10-05T06:13:10.115Z,11.00
2017-10-05T06:15:37.954Z,11.10
2017-10-05T06:18:05.595Z,11.10
2017-10-05T06:20:34.899Z,11.10
2017-10-05T06:23:02.576Z,11.10
2017-10-05T06:25:30.205Z,11.20
2017-10-05T06:27:57.922Z,11.20
2017-10-05T06:30:25.574Z,11.30
2017-10-05T06:32:53.243Z,11.30
2017-10-05T06:35:20.864Z,11.40
2017-10-05T06:37:48.535Z,11.30
2017-10-05T06:40:16.147Z,11.40
2017-10-05T06:42:43.789Z,11.40
2017-10-05T06:45:15.186Z,11.50
2017-10-05T06:47:42.828Z,11.60
2017-10-05T06:50:10.461Z,11.60
2017-10-05T06:56:13.093Z,11.70
2017-10-05T06:58:40.783Z,11.90
2017-10-05T07:01:09.199Z,12.10
2017-10-05T07:03:36.820Z,12.10
2017-10-05T07:06:04.428Z,12.10
2017-10-05T07:08:32.072Z,12.20
2017-10-05T07:10:59.708Z,12.20
2017-10-05T07:13:28.107Z,12.40
2017-10-05T07:15:55.751Z,12.40
2017-10-05T07:18:24.122Z,12.40
2017-10-05T07:20:51.745Z,12.40
2017-10-05T07:23:19.806Z,12.40
2017-10-05T07:25:47.427Z,12.40
2017-10-05T07:28:15.155Z,12.50
2017-10-05T07:30:42.747Z,12.50
2017-10-05T07:33:10.437Z,12.60
2017-10-05T07:35:38.195Z,12.50
2017-10-05T07:38:07.978Z,12.50
2017-10-05T07:40:57.022Z,12.50
2017-10-05T07:43:31.040Z,12.50
2017-10-05T07:46:02.596Z,12.60
2017-10-05T07:48:37.993Z,12.60
2017-10-05T07:51:21.027Z,12.80
2017-10-05T07:54:17.333Z,12.90
2017-10-05T07:56:47.589Z,12.80
2017-10-05T07:59:15.223Z,13.20
2017-10-05T08:01:43.655Z,13.50
2017-10-05T08:04:11.737Z,13.50
2017-10-05T08:06:39.363Z,13.50
2017-10-05T08:09:07.094Z,13.40
2017-10-05T08:11:34.769Z,13.40
2017-10-05T08:14:02.409Z,13.40
2017-10-05T08:16:30.820Z,13.50
2017-10-05T08:18:58.495Z,13.50
2017-10-05T08:21:27.434Z,13.60
2017-10-05T08:23:55.900Z,13.80
2017-10-05T08:26:23.513Z,13.80
2017-10-05T08:28:51.161Z,13.90
2017-10-05T08:31:18.765Z,13.90
2017-10-05T08:33:46.453Z,13.90
2017-10-05T08:36:14.085Z,14.00
2017-10-05T08:38:41.827Z,14.00
2017-10-05T08:41:09.605Z,14.10
2017-10-05T08:43:37.274Z,14.20
2017-10-05T08:46:04.876Z,14.20
2017-10-05T08:48:32.525Z,14.40
2017-10-05T08:51:00.156Z,14.50
2017-10-05T08:53:27.793Z,14.40
2017-10-05T08:55:55.505Z,14.40
2017-10-05T08:58:23.197Z,14.50
2017-10-05T09:00:51.624Z,14.50
2017-10-05T09:03:19.390Z,14.60
2017-10-05T09:05:46.972Z,14.60
2017-10-05T09:08:14.768Z,14.50
2017-10-05T09:10:43.238Z,14.60
2017-10-05T09:13:10.848Z,14.60
2017-10-05T09:15:38.516Z,14.60
2017-10-05T09:18:06.916Z,14.60
2017-10-05T09:20:34.591Z,14.60
2017-10-05T09:23:03.245Z,14.80
2017-10-05T09:25:30.927Z,14.80
2017-10-05T09:27:58.526Z,14.70
2017-10-05T09:30:27.443Z,14.70
2017-10-05T09:32:55.109Z,14.70
2017-10-05T09:35:24.792Z,14.90
2017-10-05T09:37:52.410Z,14.80
2017-10-05T09:40:20.065Z,15.00
2017-10-05T09:42:47.688Z,15.10
2017-10-05T09:45:16.222Z,15.40
2017-10-05T09:47:43.923Z,15.40
2017-10-05T09:50:11.607Z,15.60
2017-10-05T09:52:39.218Z,15.70
2017-10-05T09:55:06.863Z,15.70
2017-10-05T09:57:34.483Z,15.80
2017-10-05T10:00:03.025Z,15.90
2017-10-05T10:02:31.852Z,15.90
2017-10-05T10:05:01.335Z,16.00
2017-10-05T10:07:29.314Z,16.00
2017-10-05T10:10:02.082Z,16.00
2017-10-05T10:12:29.953Z,16.10
2017-10-05T10:15:03.282Z,16.10
2017-10-05T10:17:31.084Z,16.10
2017-10-05T10:20:00.577Z,16.10
2017-10-05T10:22:28.274Z,16.10
2017-10-05T10:24:58.137Z,16.20
2017-10-05T10:27:26.920Z,16.20
2017-10-05T10:29:55.282Z,16.30
2017-10-05T10:32:23.042Z,16.30
2017-10-05T10:34:51.446Z,16.30
2017-10-05T10:37:19.093Z,16.20
2017-10-05T10:39:46.761Z,16.30
2017-10-05T10:42:14.381Z,16.20
2017-10-05T10:44:43.406Z,16.20
2017-10-05T10:47:12.010Z,16.30
2017-10-05T10:49:39.623Z,16.50
2017-10-05T10:52:08.952Z,16.60
2017-10-05T10:54:37.231Z,16.80
2017-10-05T10:57:08.863Z,16.80
2017-10-05T10:59:37.101Z,16.80
2017-10-05T11:02:04.745Z,17.20
2017-10-05T11:04:32.392Z,17.30
2017-10-05T11:07:00.384Z,17.40
2017-10-05T11:09:28.171Z,17.30
2017-10-05T11:11:55.861Z,17.40
2017-10-05T11:14:24.057Z,17.30
2017-10-05T11:16:51.751Z,17.70
2017-10-05T11:19:19.421Z,17.70
2017-10-05T11:21:47.109Z,17.70
2017-10-05T11:24:14.821Z,17.60
2017-10-05T11:26:42.416Z,17.50
2017-10-05T11:29:10.148Z,17.70
2017-10-05T11:31:39.484Z,17.70
2017-10-05T11:34:09.314Z,17.90
2017-10-05T11:36:37.143Z,17.80
2017-10-05T11:39:06.068Z,18.10
2017-10-05T11:41:33.994Z,18.00
2017-10-05T11:44:03.460Z,18.90
2017-10-05T11:46:35.101Z,18.90
2017-10-05T11:49:02.799Z,18.70
2017-10-05T11:51:32.511Z,18.70
2017-10-05T11:54:00.360Z,18.80
2017-10-05T11:56:27.985Z,18.50
2017-10-05T11:58:55.592Z,18.80
2017-10-05T12:01:23.237Z,18.50
2017-10-05T12:03:50.839Z,18.80
2017-10-05T12:06:18.475Z,19.10
2017-10-05T12:08:46.131Z,18.90
2017-10-05T12:11:13.861Z,19.30
2017-10-05T12:13:41.487Z,19.10
2017-10-05T12:16:09.705Z,19.40
2017-10-05T12:18:37.755Z,19.20
2017-10-05T12:21:06.243Z,18.90
2017-10-05T12:23:33.917Z,18.80
2017-10-05T12:26:01.552Z,18.40
2017-10-05T12:28:29.940Z,18.30
2017-10-05T12:30:57.551Z,18.30
2017-10-05T12:33:25.207Z,18.10
2017-10-05T12:35:52.827Z,18.30
2017-10-05T12:38:21.258Z,18.40
2017-10-05T12:40:48.889Z,18.40
2017-10-05T12:43:16.506Z,18.80
2017-10-05T12:45:44.100Z,19.00
2017-10-05T12:48:11.837Z,19.40
2017-10-05T12:50:39.482Z,19.40
2017-10-05T12:53:07.149Z,19.40
2017-10-05T12:55:34.868Z,19.60
2017-10-05T12:58:02.500Z,19.70
2017-10-05T13:00:30.115Z,19.80
2017-10-05T13:02:57.791Z,19.40
2017-10-05T13:05:25.435Z,19.50
2017-10-05T13:07:53.088Z,20.10
2017-10-05T13:10:20.753Z,20.10
2017-10-05T13:12:48.454Z,20.10
2017-10-05T13:15:16.684Z,20.00
2017-10-05T13:17:44.340Z,19.90
2017-10-05T13:20:11.963Z,20.40
2017-10-05T13:22:39.595Z,20.50
2017-10-05T13:25:07.258Z,20.70
2017-10-05T13:27:34.917Z,21.00
2017-10-05T13:30:02.539Z,21.00
2017-10-05T13:32:30.189Z,20.80
2017-10-05T13:34:57.824Z,20.50
2017-10-05T13:37:25.448Z,20.40
2017-10-05T13:39:54.140Z,20.70
2017-10-05T13:44:55.719Z,21.30
2017-10-05T13:47:23.332Z,21.20
2017-10-05T13:49:51.209Z,21.50
2017-10-05T13:52:20.498Z,20.60
2017-10-05T13:54:48.142Z,20.50
2017-10-05T13:57:15.753Z,20.40
2017-10-05T13:59:43.388Z,20.50
2017-10-05T14:02:12.992Z,20.60
2017-10-05T14:04:40.663Z,20.60
2017-10-05T14:07:08.320Z,20.90
2017-10-05T14:09:35.963Z,20.80
2017-10-05T14:12:03.979Z,20.40
2017-10-05T14:14:31.615Z,20.50
2017-10-05T14:16:59.991Z,21.10
2017-10-05T14:19:27.721Z,21.00
2017-10-05T14:21:55.342Z,21.00
2017-10-05T14:24:22.952Z,21.00
2017-10-05T14:26:50.578Z,20.70
2017-10-05T14:29:18.208Z,20.50
2017-10-05T14:31:46.604Z,21.10
2017-10-05T14:34:14.217Z,21.10
2017-10-05T14:36:41.874Z,21.60
2017-10-05T14:39:09.577Z,21.30
2017-10-05T14:41:37.284Z,21.30
2017-10-05T14:44:04.931Z,21.10
2017-10-05T14:46:32.530Z,20.90
2017-10-05T14:49:00.166Z,20.60
2017-10-05T14:51:27.844Z,20.40
2017-10-05T14:53:55.532Z,20.20
2017-10-05T14:56:23.227Z,20.40
2017-10-05T14:58:51.613Z,19.90
2017-10-05T15:01:19.292Z,19.90
2017-10-05T15:03:47.215Z,19.90
2017-10-05T15:06:14.840Z,19.80
2017-10-05T15:08:42.447Z,20.20
2017-10-05T15:11:11.787Z,20.40
2017-10-05T15:13:39.464Z,20.40
2017-10-05T15:16:07.104Z,20.60
2017-10-05T15:18:34.732Z,20.50
2017-10-05T15:21:02.854Z,20.40
2017-10-05T15:23:30.503Z,20.40
2017-10-05T15:25:58.088Z,19.80
2017-10-05T15:28:26.570Z,19.70
2017-10-05T15:30:54.278Z,19.70
2017-10-05T15:33:23.231Z,19.50
2017-10-05T15:35:50.937Z,19.40
2017-10-05T15:38:18.589Z,19.40
2017-10-05T15:40:46.192Z,19.30
2017-10-05T15:43:13.979Z,19.40
2017-10-05T15:45:44.110Z,19.50
2017-10-05T15:48:11.879Z,19.40
2017-10-05T15:50:39.535Z,19.30
2017-10-05T15:53:07.215Z,19.30
2017-10-05T15:55:34.892Z,19.30
2017-10-05T15:58:02.500Z,19.30
2017-10-05T16:00:30.103Z,19.20
2017-10-05T16:02:57.948Z,18.80
2017-10-05T16:05:25.716Z,18.80
2017-10-05T16:07:53.354Z,18.60
2017-10-05T16:10:20.991Z,18.70
2017-10-05T16:12:49.632Z,18.50
2017-10-05T16:15:17.258Z,18.40
2017-10-05T16:17:45.294Z,18.40
2017-10-05T16:20:13.311Z,18.40
2017-10-05T16:22:40.995Z,18.70
2017-10-05T16:25:08.621Z,18.50
2017-10-05T16:27:36.691Z,18.40
2017-10-05T16:30:04.298Z,18.20
2017-10-05T16:32:31.917Z,18.00
2017-10-05T16:34:59.582Z,18.00
2017-10-05T16:37:27.384Z,17.80
2017-10-05T16:39:55.821Z,17.90
2017-10-05T16:42:23.847Z,17.80
2017-10-05T16:44:51.488Z,17.90
2017-10-05T16:47:19.149Z,17.90
2017-10-05T16:49:46.788Z,17.90
2017-10-05T16:52:14.427Z,17.90
2017-10-05T16:54:42.066Z,17.90
2017-10-05T16:57:10.115Z,17.90
2017-10-05T16:59:37.778Z,17.90
2017-10-05T17:02:05.382Z,17.90
2017-10-05T17:04:33.032Z,17.80
2017-10-05T17:07:01.439Z,17.80
2017-10-05T17:09:29.050Z,17.80
2017-10-05T17:11:56.671Z,17.70
2017-10-05T17:14:24.288Z,17.90
2017-10-05T17:16:51.979Z,18.00
2017-10-05T17:19:19.669Z,17.90
2017-10-05T17:21:47.287Z,17.80
2017-10-05T17:24:14.968Z,17.30
2017-10-05T17:26:43.599Z,16.90
2017-10-05T17:29:11.241Z,16.90
2017-10-05T17:31:38.856Z,16.90
2017-10-05T17:34:07.326Z,17.20
2017-10-05T17:36:34.971Z,17.10
2017-10-05T17:39:02.620Z,17.20
2017-10-05T17:41:30.254Z,17.20
2017-10-05T17:43:57.886Z,17.00
2017-10-05T17:46:26.356Z,16.90
2017-10-05T17:48:54.048Z,16.80
2017-10-05T17:51:21.757Z,16.80
2017-10-05T17:53:49.434Z,16.40
2017-10-05T17:56:18.127Z,16.00
2017-10-05T17:58:45.841Z,15.90
2017-10-05T18:01:13.585Z,15.70
2017-10-05T18:03:42.530Z,15.00
2017-10-05T18:06:11.053Z,14.90
2017-10-05T18:08:39.802Z,14.90
2017-10-05T18:11:07.696Z,14.90
2017-10-05T18:13:35.312Z,14.80
2017-10-05T18:16:03.316Z,14.70
2017-10-05T18:18:31.013Z,14.50
2017-10-05T18:20:59.391Z,14.10
2017-10-05T18:23:27.749Z,14.00
2017-10-05T18:25:55.453Z,14.00
2017-10-05T18:28:23.132Z,13.90
2017-10-05T18:30:51.171Z,13.70
2017-10-05T18:36:10.925Z,13.20
2017-10-05T18:38:38.691Z,13.10
2017-10-05T18:41:06.301Z,13.00
2017-10-05T18:43:34.024Z,12.70
2017-10-05T18:46:01.663Z,12.50
2017-10-05T18:48:29.401Z,12.40
2017-10-05T18:50:57.606Z,12.40
2017-10-05T18:53:26.296Z,12.30
2017-10-05T18:55:54.040Z,12.10
2017-10-05T18:58:22.318Z,12.20
2017-10-05T19:00:53.366Z,12.00
2017-10-05T19:03:21.112Z,12.00
2017-10-05T19:05:49.424Z,11.80
2017-10-05T19:08:19.890Z,11.70
2017-10-05T19:10:47.632Z,11.70
2017-10-05T19:13:15.254Z,11.80
2017-10-05T19:15:43.005Z,11.80
2017-10-05T19:18:10.654Z,11.70
2017-10-05T19:20:38.295Z,11.70
2017-10-05T19:23:05.990Z,11.70
2017-10-05T19:25:33.685Z,11.80
2017-10-05T19:28:01.330Z,11.70
2017-10-05T19:30:29.169Z,11.60
2017-10-05T19:32:57.705Z,11.60
2017-10-05T19:35:25.397Z,11.60
2017-10-05T19:37:53.053Z,11.60
2017-10-05T19:40:20.728Z,11.60
2017-10-05T19:42:48.375Z,11.60
2017-10-05T19:45:16.329Z,11.60
2017-10-05T19:47:44.061Z,11.60
2017-10-05T19:50:11.730Z,11.60
2017-10-05T19:52:39.390Z,11.60
2017-10-05T19:55:08.409Z,11.50
2017-10-05T19:57:36.956Z,11.40
2017-10-05T20:00:05.694Z,11.30
2017-10-05T20:02:33.477Z,11.30
2017-10-05T20:05:01.253Z,11.30
2017-10-05T20:07:28.982Z,11.40
2017-10-05T20:09:56.709Z,11.30
2017-10-05T20:12:24.413Z,11.20
2017-10-05T20:15:11.687Z,11.10
2017-10-05T20:17:54.337Z,11.10
2017-10-05T20:20:42.070Z,10.90
2017-10-05T20:23:11.970Z,10.80
2017-10-05T20:25:57.523Z,10.60
2017-10-05T20:28:41.117Z,10.50
2017-10-05T20:31:19.414Z,10.40
2017-10-05T20:33:47.362Z,10.50
2017-10-05T20:36:15.069Z,10.60
2017-10-05T20:38:43.119Z,10.60
2017-10-05T20:41:11.498Z,10.50
2017-10-05T20:43:39.222Z,10.40
2017-10-05T20:46:07.762Z,10.30
2017-10-05T20:48:36.248Z,10.20
2017-10-05T20:51:03.924Z,10.10
2017-10-05T20:53:31.660Z,10.10
2017-10-05T20:55:59.319Z,10.00
2017-10-05T20:58:27.016Z,10.00
2017-10-05T21:00:54.715Z,9.90
2017-10-05T21:03:22.819Z,10.00
2017-10-05T21:05:50.630Z,10.00
2017-10-05T21:08:18.419Z,10.10
2017-10-05T21:10:46.338Z,10.00
2017-10-05T21:13:14.208Z,10.00
2017-10-05T21:15:41.895Z,9.90
2017-10-05T21:18:10.399Z,9.80
2017-10-05T21:20:38.070Z,9.80
2017-10-05T21:23:05.964Z,9.80
2017-10-05T21:25:33.599Z,9.90
2017-10-05T21:28:01.217Z,9.80
2017-10-05T21:30:28.869Z,9.90
2017-10-05T21:32:56.516Z,9.90
2017-10-05T21:35:25.192Z,10.00
2017-10-05T21:37:52.847Z,10.00
2017-10-05T21:40:20.476Z,10.20
2017-10-05T21:42:49.333Z,10.00
2017-10-05T21:45:17.026Z,10.00
2017-10-05T21:47:45.424Z,9.70
2017-10-05T21:50:13.106Z,9.70
2017-10-05T21:52:40.728Z,9.80
2017-10-05T21:55:10.222Z,9.80
2017-10-05T21:57:37.972Z,9.80
2017-10-05T22:00:05.823Z,9.70
2017-10-05T22:02:33.487Z,9.60
2017-10-05T22:05:01.862Z,9.60
2017-10-05T22:07:30.172Z,9.50
2017-10-05T22:09:57.835Z,9.50
2017-10-05T22:12:25.492Z,9.40
2017-10-05T22:14:53.139Z,9.30
2017-10-05T22:17:20.822Z,9.30
2017-10-05T22:19:48.491Z,9.40
2017-10-05T22:22:16.266Z,9.30
2017-10-05T22:24:44.685Z,9.20
2017-10-05T22:27:12.539Z,9.10
2017-10-05T22:29:41.047Z,9.00
2017-10-05T22:32:08.668Z,9.00
2017-10-05T22:34:36.337Z,9.00
2017-10-05T22:37:06.520Z,8.90
2017-10-05T22:39:35.106Z,8.90
2017-10-05T22:42:02.788Z,8.70
2017-10-05T22:44:30.477Z,8.60
2017-10-05T22:46:58.135Z,8.60
2017-10-05T22:49:26.431Z,8.50
2017-10-05T22:51:56.752Z,8.40
2017-10-05T22:54:24.403Z,8.40
2017-10-05T22:56:52.030Z,8.40
2017-10-05T22:59:20.072Z,8.40
2017-10-05T23:01:48.339Z,8.40
2017-10-05T23:04:16.079Z,8.40
2017-10-05T23:06:43.738Z,8.40
2017-10-05T23:09:11.455Z,8.30
2017-10-05T23:11:39.117Z,8.30
2017-10-05T23:14:06.868Z,8.20
2017-10-05T23:16:34.500Z,8.20
2017-10-05T23:19:02.190Z,8.20
2017-10-05T23:21:29.842Z,8.20
2017-10-05T23:23:57.459Z,8.20
2017-10-05T23:26:25.869Z,8.10
2017-10-05T23:28:53.520Z,8.10
2017-10-05T23:31:21.347Z,8.10
2017-10-05T23:33:48.985Z,8.10
2017-10-05T23:36:16.649Z,8.00
2017-10-05T23:38:44.262Z,8.00
2017-10-05T23:41:12.656Z,8.00
2017-10-05T23:43:40.313Z,8.00
2017-10-05T23:46:07.973Z,7.90
2017-10-05T23:48:35.604Z,7.90
2017-10-05T23:51:03.351Z,7.80
2017-10-05T23:53:30.973Z,7.80
2017-10-05T23:55:58.616Z,7.70
2017-10-05T23:58:26.286Z,7.60
